Terminal Aerodrome Forecast
Issued by NWS

Home | Current Version | Previous Version | Text Only | Print | Product List | Glossary On
Versions: 1 2 3 4 5 6 7 8 9
000
FTUS46 KSTO 261100
TAFRBL
TAF
KRBL 261127Z 2612/2712 34007KT P6SM SKC
     FM261900 35014KT P6SM SKC
     FM270000 33007KT P6SM SKC=

USA.gov is the U.S. government's official web portal to all federal, state and local government web resources and services.